Latest Weather Observations for Sydney Airport

IDN60901

Issued at 10:11 am EST Tuesday 14 July 2020 (issued every 10 minutes, with the page automatically refreshed every 10 minutes)

About weather observations | Map of Sydney area stations | Latest observations for Sydney area | Other Formats
Station Details ID: 066037 Name: SYDNEY AIRPORT AMO Lat: -33.95 Lon: 151.17 Height: 6.0 m
Data from the previous 72 hours. | See also: Recent months at Sydney Airport
Date/Time
EST
Temp
°C
App
Temp
°C
Dew
Point
°C
Rel
Hum
%
Delta-T
°C
Wind Press
QNH
hPa
Press
MSL
hPa
Rain since
9am
mm
Dir  Spd
km/h
Gust
km/h
Spd
kts
Gust
kts
14/10:00am 14.0 2.8 11.2 83 1.5 S 61 82 33 44 1017.4 1017.4 0.4
14/09:59am 13.9 3.1 11.1 83 1.5 S 59 82 32 44 1017.5 1017.5 0.2
14/09:30am 15.5 5.5 10.9 74 2.4 S 54 80 29 43 1016.4 1016.4 0.0
14/09:00am 15.9 5.3 10.7 71 2.8 S 57 78 31 42 1016.3 1016.3 8.8
14/08:30am 15.3 5.3 10.9 75 2.3 SSE 54 74 29 40 1016.1 1016.1 8.8
14/08:00am 16.5 6.1 11.2 71 2.8 S 57 78 31 42 1015.2 1015.2 8.8
14/07:30am 15.7 5.0 11.7 77 2.2 S 59 78 32 42 1014.9 1014.9 8.8
14/07:00am 15.6 4.5 11.6 77 2.2 S 61 83 33 45 1014.3 1014.3 8.8
14/06:57am 15.3 4.2 11.7 79 1.9 S 61 83 33 45 1014.4 1014.4 8.8
14/06:54am 15.3 4.4 12.1 81 1.7 S 61 83 33 45 1014.2 1014.2 8.8
14/06:33am 14.5 4.1 12.7 89 1.0 S 59 76 32 41 1014.5 1014.5 8.6
14/06:30am 14.5 3.8 12.9 90 0.9 S 61 76 33 41 1014.5 1014.5 8.6
14/06:28am 14.4 4.5 13.0 91 0.8 S 57 76 31 41 1014.4 1014.4 8.4
14/06:21am 12.5 6.4 11.7 95 0.4 SSW 35 63 19 34 1014.8 1014.8 8.4
14/06:20am 12.2 6.6 11.4 95 0.4 SSW 32 50 17 27 1014.7 1014.7 8.2
14/06:10am 11.4 5.9 10.5 94 0.5 SW 30 43 16 23 1014.8 1014.8 6.6
14/06:04am 11.4 5.5 10.3 93 0.6 SW 32 43 17 23 1014.7 1014.7 5.0
14/06:00am 11.4 5.4 10.1 92 0.7 SW 32 37 17 20 1014.6 1014.6 4.0
14/05:30am 11.4 5.1 9.7 89 0.9 WSW 33 46 18 25 1014.4 1014.4 2.0
14/05:00am 12.1 5.8 9.8 86 1.2 SW 33 41 18 22 1014.4 1014.4 1.2
14/04:30am 13.0 4.4 10.4 84 1.3 SSW 46 57 25 31 1014.2 1014.2 0.8
14/04:00am 13.2 4.9 10.0 81 1.6 SSW 44 59 24 32 1014.4 1014.4 0.6
14/03:30am 13.4 5.2 9.8 79 1.8 SSW 43 54 23 29 1014.8 1014.8 0.4
14/03:14am 13.3 5.9 9.7 79 1.8 SSW 39 57 21 31 1015.0 1015.0 0.4
14/03:00am 13.4 5.0 9.8 79 1.8 SSW 44 59 24 32 1015.2 1015.2 0.4
14/02:30am 12.8 5.3 9.4 80 1.7 SSW 39 50 21 27 1015.1 1015.1 0.4
14/02:00am 13.4 6.4 8.3 71 2.5 SSW 35 46 19 25 1015.6 1015.6 0.2
14/01:30am 13.3 6.8 9.0 75 2.2 SSW 33 41 18 22 1016.0 1016.0 0.2
14/01:00am 12.9 7.7 8.8 76 2.1 SSW 26 33 14 18 1016.2 1016.2 0.2
14/12:30am 12.0 7.5 8.7 80 1.6 SW 22 35 12 19 1016.7 1016.7 0.2
14/12:00am 12.5 8.6 9.3 81 1.6 SW 20 28 11 15 1016.8 1016.8 0.2
 
Date/Time
EST
Temp
°C
App
Temp
°C
Dew
Point
°C
Rel
Hum
%
Delta-T
°C
Wind Press
QNH
hPa
Press
MSL
hPa
Rain since
9am
mm
Dir  Spd
km/h
Gust
km/h
Spd
kts
Gust
kts
13/11:30pm 12.4 6.9 9.2 81 1.6 SW 28 37 15 20 1017.0 1017.0 0.2
13/11:00pm 12.6 5.6 9.8 83 1.4 SSW 37 50 20 27 1017.3 1017.3 0.2
13/10:30pm 13.0 5.8 9.3 78 1.9 SSW 37 48 20 26 1017.7 1017.7 0.2
13/10:00pm 12.5 6.1 9.3 81 1.6 SSW 33 46 18 25 1017.9 1017.9 0.2
13/09:50pm 12.0 7.2 8.7 80 1.6 SW 24 39 13 21 1018.0 1018.0 0.2
13/09:30pm 11.8 8.2 8.5 80 1.6 WSW 17 24 9 13 1018.0 1018.0 0.2
13/09:00pm 11.6 7.6 8.3 80 1.6 W 19 24 10 13 1017.5 1017.5 0.2
13/08:30pm 12.4 8.9 8.9 79 1.8 W 17 22 9 12 1017.8 1017.8 0.2
13/08:00pm 13.0 9.3 9.4 79 1.8 WSW 19 24 10 13 1018.1 1018.1 0.2
13/07:30pm 12.8 9.1 9.4 80 1.7 WSW 19 24 10 13 1018.0 1018.0 0.2
13/07:00pm 13.2 9.9 9.5 78 1.9 WSW 17 19 9 10 1017.9 1017.9 0.2
13/06:30pm 13.6 10.7 9.5 76 2.1 SW 15 19 8 10 1017.7 1017.7 0.2
13/06:00pm 14.0 10.7 9.4 74 2.3 SW 17 20 9 11 1017.4 1017.4 0.2
13/05:30pm 14.0 10.6 9.2 73 2.4 SW 17 19 9 10 1017.3 1017.3 0.2
13/05:00pm 14.7 11.0 10.1 74 2.4 SSW 20 26 11 14 1017.1 1017.1 0.2
13/04:30pm 14.9 11.5 10.5 75 2.3 S 19 26 10 14 1017.0 1017.0 0.2
13/04:00pm 15.2 11.3 9.3 68 3.0 SSW 20 28 11 15 1016.8 1016.8 0.2
13/03:30pm 15.4 11.6 9.7 69 3.0 S 20 24 11 13 1016.7 1016.7 0.2
13/03:00pm 15.6 11.9 9.3 66 3.2 SSE 19 24 10 13 1016.5 1016.5 0.2
13/02:30pm 14.9 12.5 8.6 66 3.2 SSE 11 15 6 8 1016.4 1016.4 0.2
13/02:00pm 15.9 13.6 8.9 63 3.6 S 11 15 6 8 1016.5 1016.5 0.2
13/01:30pm 15.9 14.5 9.6 66 3.3 SSE 7 11 4 6 1016.7 1016.7 0.2
13/01:00pm 15.1 13.2 9.2 68 3.0 SSE 9 13 5 7 1016.8 1016.8 0.0
13/12:30pm 15.6 13.9 9.9 69 3.0 S 9 13 5 7 1016.9 1016.9 0.0
13/12:00pm 14.7 12.8 8.9 68 2.9 SSW 9 13 5 7 1017.3 1017.3 0.0
13/11:30am 16.1 14.3 9.5 65 3.4 WSW 9 11 5 6 1017.6 1017.6 0.0
13/11:00am 15.4 13.2 9.5 68 3.0 WNW 11 15 6 8 1018.1 1018.1 0.0
13/10:30am 15.0 12.8 9.4 69 2.9 WNW 11 13 6 7 1018.4 1018.4 0.0
13/10:00am 14.3 11.8 9.7 74 2.4 NW 13 15 7 8 1018.6 1018.6 0.0
13/09:30am 13.1 10.9 9.5 79 1.8 NW 11 15 6 8 1018.8 1018.8 0.0
13/09:00am 12.1 9.1 9.3 83 1.4 NW 15 17 8 9 1018.7 1018.7 4.2
13/08:30am 11.0 7.9 8.9 87 1.0 NW 15 17 8 9 1018.6 1018.6 4.2
13/08:00am 10.0 7.1 8.1 88 0.9 NW 13 15 7 8 1018.3 1018.3 4.2
13/07:30am 10.0 7.2 8.6 91 0.7 NW 13 17 7 9 1018.2 1018.2 4.2
13/07:00am 9.6 6.8 8.4 92 0.6 NNW 13 15 7 8 1017.9 1017.9 4.2
13/06:30am 9.4 7.7 8.2 92 0.6 NNW 7 9 4 5 1017.6 1017.6 4.2
13/06:00am 9.4 7.3 8.2 92 0.6 WNW 9 11 5 6 1017.3 1017.3 4.2
13/05:30am 9.6 7.2 8.5 93 0.5 WNW 11 13 6 7 1017.1 1017.1 4.2
13/05:00am 9.4 6.9 8.3 93 0.5 WNW 11 13 6 7 1017.0 1017.0 4.2
13/04:30am 9.8 7.4 8.7 93 0.5 NW 11 11 6 6 1017.1 1017.1 4.2
13/04:00am 10.0 7.7 8.9 93 0.5 NNW 11 15 6 8 1017.0 1017.0 4.2
13/03:30am 10.3 8.4 9.2 93 0.5 WNW 9 11 5 6 1016.8 1016.8 4.2
13/03:00am 10.3 8.0 9.1 92 0.6 W 11 15 6 8 1016.9 1016.9 4.2
13/02:30am 10.3 7.6 8.9 91 0.7 WSW 13 17 7 9 1017.0 1017.0 4.2
13/02:00am 10.7 8.5 9.5 92 0.6 WNW 11 19 6 10 1017.4 1017.4 4.2
13/01:30am 10.8 7.9 9.7 93 0.6 WSW 15 19 8 10 1016.6 1016.6 4.2
13/01:00am 11.0 8.5 9.8 92 0.6 W 13 13 7 7 1016.9 1016.9 4.0
13/12:30am 11.4 9.7 10.0 91 0.7 N 9 13 5 7 1017.0 1017.0 4.0
13/12:00am 11.8 9.4 10.2 90 0.8 NNW 13 17 7 9 1017.4 1017.4 3.8
 
Date/Time
EST
Temp
°C
App
Temp
°C
Dew
Point
°C
Rel
Hum
%
Delta-T
°C
Wind Press
QNH
hPa
Press
MSL
hPa
Rain since
9am
mm
Dir  Spd
km/h
Gust
km/h
Spd
kts
Gust
kts
12/11:30pm 11.9 9.9 10.0 88 1.0 N 11 13 6 7 1017.6 1017.6 3.8
12/11:00pm 11.8 10.1 9.9 88 1.0 NW 9 13 5 7 1017.3 1017.3 3.8
12/10:30pm 11.9 9.5 10.1 89 0.9 NW 13 19 7 10 1016.9 1016.9 3.8
12/10:00pm 12.0 9.3 10.4 90 0.8 NW 15 19 8 10 1017.0 1017.0 3.8
12/09:30pm 11.9 9.2 10.3 90 0.8 NNW 15 19 8 10 1017.4 1017.4 3.8
12/09:00pm 11.7 10.6 10.1 90 0.8 W 6 9 3 5 1017.1 1017.1 3.8
12/08:30pm 12.1 9.9 10.7 91 0.7 NNW 13 19 7 10 1017.2 1017.2 3.8
12/08:00pm 11.7 9.4 10.4 92 0.7 NW 13 15 7 8 1016.7 1016.7 3.8
12/07:30pm 12.4 9.8 10.8 90 0.8 NW 15 20 8 11 1016.7 1016.7 3.8
12/07:00pm 12.6 11.3 11.3 92 0.7 W 9 11 5 6 1016.2 1016.2 3.8
12/06:30pm 12.0 10.9 10.6 91 0.7 W 7 11 4 6 1015.8 1015.8 3.8
12/06:00pm 12.6 10.1 11.2 91 0.7 W 15 19 8 10 1015.7 1015.7 3.8
12/05:30pm 12.2 9.6 10.8 91 0.7 SW 15 24 8 13 1015.2 1015.2 3.6
12/05:23pm 11.8 10.2 10.2 90 0.8 SSW 9 13 5 7 1015.4 1015.4 3.6
12/05:00pm 13.0 9.6 11.1 88 1.0 NW 20 26 11 14 1015.7 1015.7 2.4
12/04:44pm 12.8 7.6 10.2 84 1.3 NNW 28 39 15 21 1015.8 1015.8 1.4
12/04:38pm 13.4 9.7 9.6 78 1.9 NNE 19 39 10 21 1015.6 1015.6 0.4
12/04:30pm 16.0 14.0 10.1 68 3.1 E 11 13 6 7 1015.2 1015.2 0.2
12/04:00pm 15.6 13.2 8.6 63 3.6 ENE 11 13 6 7 1014.9 1014.9 0.2
12/03:30pm 15.8 13.2 7.6 58 4.1 E 11 11 6 6 1014.8 1014.8 0.2
12/03:00pm 16.5 14.0 8.0 57 4.3 NE 11 15 6 8 1014.8 1014.8 0.2
12/02:30pm 16.5 14.8 9.7 64 3.6 SE 9 15 5 8 1014.8 1014.8 0.2
12/02:00pm 16.1 14.1 8.6 61 3.8 SE 9 13 5 7 1014.7 1014.7 0.2
12/01:30pm 15.6 13.9 8.4 62 3.6 SE 7 9 4 5 1014.7 1014.7 0.0
12/01:00pm 15.5 14.2 9.2 66 3.2 WSW 6 11 3 6 1014.9 1014.9 0.0
12/12:30pm 15.4 14.0 9.7 69 3.0 WSW 7 9 4 5 1015.4 1015.4 0.0
12/12:00pm 16.2 14.9 9.8 66 3.3 W 7 9 4 5 1015.7 1015.7 0.0
12/11:30am 16.2 14.2 10.1 67 3.2 NW 11 13 6 7 1016.2 1016.2 0.0
12/11:00am 14.8 12.3 9.6 71 2.7 NW 13 15 7 8 1016.4 1016.4 0.0
12/10:30am 14.4 11.5 9.6 73 2.5 WNW 15 22 8 12 1016.7 1016.7 0.0
12/10:00am 13.4 10.0 9.3 76 2.1 NW 17 19 9 10 1016.5 1016.5 0.0
12/09:30am 12.8 10.5 8.9 77 2.0 WNW 11 13 6 7 1016.4 1016.4 0.0
12/09:00am 11.5 8.7 8.7 83 1.4 WNW 13 15 7 8 1016.4 1016.4 0.6
12/08:30am 10.7 7.2 8.6 87 1.0 NW 17 19 9 10 1016.4 1016.4 0.6
12/08:00am 10.2 7.1 8.8 91 0.7 WNW 15 17 8 9 1016.3 1016.3 0.6
12/07:30am 9.2 5.2 8.1 93 0.5 NW 19 22 10 12 1016.2 1016.2 0.6
12/07:00am 9.3 5.6 8.1 92 0.6 NW 17 19 9 10 1015.9 1015.9 0.6
12/06:30am 9.1 5.8 8.0 93 0.5 NW 15 17 8 9 1015.7 1015.7 0.6
12/06:00am 9.1 5.9 8.3 95 0.4 NW 15 17 8 9 1015.4 1015.4 0.6
12/05:30am 9.2 6.4 8.6 96 0.3 NNW 13 15 7 8 1015.4 1015.4 0.6
12/05:00am 9.4 7.1 8.9 97 0.2 NW 11 13 6 7 1015.1 1015.1 0.6
12/04:30am 9.3 6.6 8.8 97 0.2 NW 13 17 7 9 1015.0 1015.0 0.6
12/04:15am 9.5 6.4 9.0 97 0.2 NW 15 17 8 9 1015.1 1015.1 0.6
12/04:00am 9.5 6.1 9.0 97 0.2 NW 17 20 9 11 1015.1 1015.1 0.4
12/03:56am 9.6 6.2 9.1 97 0.2 NW 17 20 9 11 1015.1 1015.1 0.4
12/03:47am 9.8 7.2 9.2 96 0.3 NW 13 17 7 9 1015.0 1015.0 0.4
12/03:30am 10.0 7.8 9.5 97 0.2 NW 11 13 6 7 1015.0 1015.0 0.4
12/03:00am 10.1 7.9 9.5 96 0.3 NW 11 11 6 6 1014.9 1014.9 0.4
12/02:30am 10.4 8.3 9.8 96 0.3 NW 11 13 6 7 1014.9 1014.9 0.4
12/02:10am 10.4 8.6 9.6 95 0.4 NNW 9 11 5 6 1014.9 1014.9 0.4
12/02:00am 10.6 8.5 9.8 95 0.4 NNW 11 11 6 6 1014.8 1014.8 0.4
12/01:47am 10.4 8.6 9.5 94 0.4 NNW 9 11 5 6 1014.7 1014.7 0.4
12/01:44am 10.8 9.1 9.9 94 0.5 NNW 9 9 5 5 1014.7 1014.7 0.4
12/01:30am 11.2 9.6 10.3 94 0.5 NNW 9 11 5 6 1014.7 1014.7 0.4
12/01:00am 11.1 9.5 10.2 94 0.5 NNW 9 11 5 6 1014.7 1014.7 0.4
12/12:30am 11.8 10.3 10.7 93 0.6 NW 9 9 5 5 1014.9 1014.9 0.4
12/12:15am 11.7 10.6 10.6 93 0.6 NW 7 7 4 4 1014.9 1014.9 0.4
12/12:00am 12.2 11.2 11.1 93 0.6 NW 7 9 4 5 1014.9 1014.9 0.4
 
Date/Time
EST
Temp
°C
App
Temp
°C
Dew
Point
°C
Rel
Hum
%
Delta-T
°C
Wind Press
QNH
hPa
Press
MSL
hPa
Rain since
9am
mm
Dir  Spd
km/h
Gust
km/h
Spd
kts
Gust
kts
11/11:30pm 12.6 11.4 11.5 93 0.6 WNW 9 11 5 6 1015.0 1015.0 0.4
11/11:00pm 12.3 10.9 11.0 92 0.7 WNW 9 11 5 6 1015.1 1015.1 0.4
11/10:30pm 12.7 11.4 11.3 91 0.7 NW 9 9 5 5 1015.0 1015.0 0.4
11/10:00pm 13.2 11.7 11.8 91 0.7 NW 11 13 6 7 1015.0 1015.0 0.4
11/09:30pm 13.2 12.1 11.8 91 0.7 NW 9 11 5 6 1014.9 1014.9 0.4
11/09:00pm 13.2 11.4 12.1 93 0.6 WSW 13 13 7 7 1015.0 1015.0 0.4
11/08:30pm 13.1 11.2 11.8 92 0.7 WSW 13 15 7 8 1015.2 1015.2 0.4
11/08:00pm 13.4 11.9 12.0 91 0.8 SSW 11 15 6 8 1015.1 1015.1 0.4
11/07:30pm 14.0 13.3 12.0 88 1.1 WSW 7 9 4 5 1015.0 1015.0 0.4
11/07:00pm 13.9 14.5 11.8 87 1.1 CALM 0 7 0 4 1014.8 1014.8 0.4
11/06:30pm 14.3 13.2 12.0 86 1.2 WNW 9 11 5 6 1014.4 1014.4 0.4
11/06:00pm 14.0 12.5 11.9 87 1.1 WSW 11 13 6 7 1014.2 1014.2 0.4
11/05:30pm 14.3 12.8 11.8 85 1.3 W 11 11 6 6 1013.9 1013.9 0.4
11/05:00pm 14.8 13.6 11.6 81 1.7 W 9 11 5 6 1013.8 1013.8 0.4
11/04:30pm 15.7 14.7 12.3 80 1.9 NW 9 11 5 6 1013.8 1013.8 0.4
11/04:00pm 15.7 14.6 12.1 79 2.0 NW 9 13 5 7 1013.9 1013.9 0.4
11/03:30pm 16.0 14.3 12.6 80 1.9 WNW 13 17 7 9 1013.9 1013.9 0.4
11/03:00pm 16.0 14.7 12.6 80 1.9 WNW 11 13 6 7 1013.9 1013.9 0.4
11/02:30pm 15.7 14.1 12.8 83 1.6 WNW 13 15 7 8 1014.2 1014.2 0.4
11/02:00pm 15.3 13.7 12.8 85 1.4 WNW 13 15 7 8 1014.5 1014.5 0.4
11/01:30pm 15.2 13.7 13.1 87 1.2 NW 13 17 7 9 1014.8 1014.8 0.4
11/01:20pm 15.2 14.1 13.2 88 1.1 NW 11 13 6 7 1014.7 1014.7 0.4
11/01:00pm 15.0 13.6 13.4 90 0.9 NW 13 15 7 8 1015.1 1015.1 0.4
11/12:45pm 14.7 13.1 12.9 89 1.0 NW 13 15 7 8 1015.5 1015.5 0.4
11/12:30pm 14.5 13.3 12.7 89 1.0 NW 11 15 6 8 1015.7 1015.7 0.4
11/12:00pm 14.2 12.6 12.9 92 0.7 NW 13 17 7 9 1016.1 1016.1 0.4
11/11:30am 14.3 12.8 13.0 92 0.7 NW 13 17 7 9 1016.9 1016.9 0.4
11/11:00am 14.1 12.6 13.0 93 0.6 NW 13 17 7 9 1017.1 1017.1 0.2
11/10:30am 14.0 12.4 12.7 92 0.7 NW 13 17 7 9 1017.3 1017.3 0.0

Latest Capital City Observations: Canberra | Sydney | Melbourne | Brisbane | Adelaide | Perth | Hobart | Darwin

Other formats

Comma delimited format used in spreadsheet applications
http://www.bom.gov.au/fwo/IDN60901/IDN60901.94767.axf

JavaScript Object Notation format (JSON) in row-major order
http://www.bom.gov.au/fwo/IDN60901/IDN60901.94767.json

Data quality

Most of these data are generated automatically and are frequently updated. Quality checks on data are not normally performed. It is possible for incorrect values to appear. Refer to information at About Latest Weather Observations and please check the disclaimer before using these data.